Cape Martin — C4SG2 — position and weather

sailwx.info

Track history (hours):
 
Tides and Currents Weather Stations Pressure Air Temp Water Temp Dewpoint Dewpoint Depression Visibility Wind Speed Wind Dir Waves Ship Positions

Cape Martin

Last reported at 2018-Apr-22 17:36 UTC. Time now 2018-Apr-24 02:29 UTC.
Position N 28°33' W 093°25'.

Length 226 m; draft 10.6 m.

Type: Cargo ship. MMSI: 210516000.

Date/timePositionNaut miles runAvg speedWind from/ knotsBaromVisibWave heightAir tempDewpointWater temp
2018-Apr-22 17:36N 28°33' W 093°25'1 8.9
2018-Apr-22 17:29N 28°33' W 093°26'4 8.9
2018-Apr-22 16:59N 28°36' W 093°30'4 8.9
2018-Apr-22 16:30N 28°38' W 093°34'4 8.8
2018-Apr-22 16:00N 28°41' W 093°38'5 8.8
2018-Apr-22 15:26N 28°44' W 093°43'29 8.5
2018-Apr-22 12:04N 29°00' W 094°09'3 8.4
2018-Apr-22 11:44N 29°02' W 094°12'2 8.4
2018-Apr-22 11:28N 29°03' W 094°14'4 8.3
2018-Apr-22 11:00N 29°05' W 094°18'21 8.3
2018-Apr-22 08:25N 29°18' W 094°37'512.7
2018-Apr-22 08:00N 29°21' W 094°43'611.4
2018-Apr-22 07:30N 29°23' W 094°49'612.8
2018-Apr-22 07:00N 29°29' W 094°52'612.5
2018-Apr-22 06:30N 29°34' W 094°55'510.9
2018-Apr-22 06:00N 29°39' W 094°58'3 5.1
2018-Apr-22 05:30N 29°41' W 094°60'0 0.2
2018-Apr-22 04:59N 29°41' W 095°00'0 0.0
2018-Apr-22 04:29N 29°41' W 095°00'0 0.0
2018-Apr-22 03:59N 29°41' W 095°00'0 0.0
2018-Apr-22 03:29N 29°41' W 095°00'0 0.0
2018-Apr-22 02:56N 29°41' W 095°00'0 0.0
2018-Apr-22 02:29N 29°41' W 095°00'0 0.0
2018-Apr-22 01:59N 29°41' W 095°00'0 0.0
2018-Apr-22 01:29N 29°41' W 095°00'0 0.0
2018-Apr-22 00:59N 29°41' W 095°00'0 0.0
2018-Apr-22 00:29N 29°41' W 095°00'0 0.0
2018-Apr-21 23:59N 29°41' W 095°00'0 0.0
2018-Apr-21 23:29N 29°41' W 095°00'0 0.0
2018-Apr-21 22:59N 29°41' W 095°00'0 0.0
2018-Apr-21 22:29N 29°41' W 095°00'0 0.0
2018-Apr-21 21:59N 29°41' W 095°00'0 0.0
2018-Apr-21 21:29N 29°41' W 095°00'0 0.0
2018-Apr-21 20:59N 29°41' W 095°00'0 0.0
2018-Apr-21 20:29N 29°41' W 095°00'0 0.0
2018-Apr-21 19:59N 29°41' W 095°00'0 0.0
2018-Apr-21 19:29N 29°41' W 095°00'0 0.0
2018-Apr-21 18:59N 29°41' W 095°00'0 0.0
2018-Apr-21 18:29N 29°41' W 095°00'0 0.0
2018-Apr-21 17:59N 29°41' W 095°00'0 0.0
2018-Apr-21 17:29N 29°41' W 095°00'0 0.0
2018-Apr-21 16:59N 29°41' W 095°00'0 0.0
2018-Apr-21 16:29N 29°41' W 095°00'0 0.0
2018-Apr-21 15:56N 29°41' W 095°00'0 0.0
2018-Apr-21 15:29N 29°41' W 095°00'0 0.0
2018-Apr-21 14:59N 29°41' W 095°00'0 0.0
2018-Apr-21 14:29N 29°41' W 095°00'0 0.0
2018-Apr-21 13:59N 29°41' W 095°00'0 0.0
2018-Apr-21 13:29N 29°41' W 095°00'0 0.0
2018-Apr-21 12:59N 29°41' W 095°00'0 0.0
2018-Apr-21 12:29N 29°41' W 095°00'0 0.0
2018-Apr-21 11:57N 29°41' W 095°00'0 0.1
2018-Apr-21 11:30N 29°41' W 095°00'2 4.0
2018-Apr-21 11:00N 29°40' W 094°58'5 9.3
2018-Apr-21 10:30N 29°35' W 094°56'510.2
2018-Apr-21 10:00N 29°31' W 094°53'510.7
2018-Apr-21 09:30N 29°26' W 094°50'510.5
2018-Apr-21 09:00N 29°22' W 094°48'22 7.6
2018-Apr-21 06:09N 29°12' W 094°25'  
2018-Apr-16 06:57N 27°37' W 082°40'614.7
2018-Apr-16 06:30N 27°41' W 082°34'713.8
2018-Apr-16 06:00N 27°47' W 082°31'612.7
2018-Apr-16 05:30N 27°52' W 082°26'2 4.1
2018-Apr-16 04:58N 27°55' W 082°26'0 0.0
2018-Apr-16 04:28N 27°55' W 082°26'0 0.0
2018-Apr-16 03:58N 27°55' W 082°26'0 0.0
2018-Apr-16 03:28N 27°55' W 082°26'0 0.0
2018-Apr-16 02:58N 27°55' W 082°26'0 0.0
2018-Apr-16 02:28N 27°55' W 082°26'0 0.0
2018-Apr-16 01:58N 27°55' W 082°26'0 0.0
2018-Apr-16 01:28N 27°55' W 082°26'0 0.0
2018-Apr-16 00:58N 27°55' W 082°26'0 0.0
2018-Apr-16 00:28N 27°55' W 082°26'0 0.0
2018-Apr-15 23:58N 27°55' W 082°26'0 0.0
2018-Apr-15 23:28N 27°55' W 082°26'0 0.0
2018-Apr-15 22:58N 27°55' W 082°26'0 0.0
2018-Apr-15 22:28N 27°55' W 082°26'0 0.0
2018-Apr-15 21:58N 27°55' W 082°26'0 0.0
2018-Apr-15 21:28N 27°55' W 082°26'0 0.0
2018-Apr-15 20:58N 27°55' W 082°26'0 0.0
2018-Apr-15 20:28N 27°55' W 082°26'0 0.0
2018-Apr-15 19:58N 27°55' W 082°26'0 0.0
2018-Apr-15 19:28N 27°55' W 082°26'0 0.0
2018-Apr-15 18:58N 27°55' W 082°26'0 0.0
2018-Apr-15 18:28N 27°55' W 082°26'0 0.0
2018-Apr-15 17:58N 27°55' W 082°26'0 0.0
2018-Apr-15 17:28N 27°55' W 082°26'0 0.0
2018-Apr-15 16:58N 27°55' W 082°26'0 0.0
2018-Apr-15 16:28N 27°55' W 082°26'0 0.0
2018-Apr-15 15:58N 27°55' W 082°26'0 0.0
2018-Apr-15 15:28N 27°55' W 082°26'0 0.0
2018-Apr-15 14:58N 27°55' W 082°26'0 0.0
2018-Apr-15 14:28N 27°55' W 082°26'0 0.0
2018-Apr-15 13:58N 27°55' W 082°26'0 0.0
2018-Apr-15 13:28N 27°55' W 082°26'0 0.0
2018-Apr-15 12:58N 27°55' W 082°26'0 0.0
2018-Apr-15 12:28N 27°55' W 082°26'0 0.0
2018-Apr-15 11:58N 27°55' W 082°26'0 0.0
2018-Apr-15 11:28N 27°55' W 082°26'0 0.0
2018-Apr-15 11:00N 27°55' W 082°26'1 2.6
2018-Apr-15 10:30N 27°53' W 082°26'5 9.6
2018-Apr-15 10:01N 27°49' W 082°27'5 9.4
2018-Apr-15 09:30N 27°46' W 082°31'510.9
2018-Apr-15 09:00N 27°41' W 082°34'2012.3
2018-Apr-15 07:25N 27°36' W 082°56'12 6.0
2018-Apr-15 05:24N 27°31' W 083°08'4 8.6
2018-Apr-15 04:57N 27°27' W 083°09'4 8.6
2018-Apr-15 04:30N 27°23' W 083°11'4 8.6
2018-Apr-15 04:00N 27°19' W 083°12'4 8.6
2018-Apr-15 03:30N 27°15' W 083°14'5 8.6
2018-Apr-15 02:58N 27°11' W 083°15'510.4
2018-Apr-15 02:30N 27°06' W 083°17'812.4
2018-Apr-15 01:52N 26°59' W 083°20'  
Track history (hours):
 
Tides and Currents Weather Stations Pressure Air Temp Water Temp Dewpoint Dewpoint Depression Visibility Wind Speed Wind Dir Waves Ship Positions

Cape Martin

Last reported at 2018-Apr-22 17:36 UTC. Time now 2018-Apr-24 02:29 UTC.
Position N 28°33' W 093°25'.

Length 226 m; draft 10.6 m.

Type: Cargo ship. MMSI: 210516000.

Date/timePositionNaut miles runAvg speedWind from/ knotsBaromVisibWave heightAir tempDewpointWater temp
2018-Apr-22 17:36N 28°33' W 093°25'1 8.9
2018-Apr-22 17:29N 28°33' W 093°26'4 8.9
2018-Apr-22 16:59N 28°36' W 093°30'4 8.9
2018-Apr-22 16:30N 28°38' W 093°34'4 8.8
2018-Apr-22 16:00N 28°41' W 093°38'5 8.8
2018-Apr-22 15:26N 28°44' W 093°43'29 8.5
2018-Apr-22 12:04N 29°00' W 094°09'3 8.4
2018-Apr-22 11:44N 29°02' W 094°12'2 8.4
2018-Apr-22 11:28N 29°03' W 094°14'4 8.3
2018-Apr-22 11:00N 29°05' W 094°18'21 8.3
2018-Apr-22 08:25N 29°18' W 094°37'512.7
2018-Apr-22 08:00N 29°21' W 094°43'611.4
2018-Apr-22 07:30N 29°23' W 094°49'612.8
2018-Apr-22 07:00N 29°29' W 094°52'612.5
2018-Apr-22 06:30N 29°34' W 094°55'510.9
2018-Apr-22 06:00N 29°39' W 094°58'3 5.1
2018-Apr-22 05:30N 29°41' W 094°60'0 0.2
2018-Apr-22 04:59N 29°41' W 095°00'0 0.0
2018-Apr-22 04:29N 29°41' W 095°00'0 0.0
2018-Apr-22 03:59N 29°41' W 095°00'0 0.0
2018-Apr-22 03:29N 29°41' W 095°00'0 0.0
2018-Apr-22 02:56N 29°41' W 095°00'0 0.0
2018-Apr-22 02:29N 29°41' W 095°00'0 0.0
2018-Apr-22 01:59N 29°41' W 095°00'0 0.0
2018-Apr-22 01:29N 29°41' W 095°00'0 0.0
2018-Apr-22 00:59N 29°41' W 095°00'0 0.0
2018-Apr-22 00:29N 29°41' W 095°00'0 0.0
2018-Apr-21 23:59N 29°41' W 095°00'0 0.0
2018-Apr-21 23:29N 29°41' W 095°00'0 0.0
2018-Apr-21 22:59N 29°41' W 095°00'0 0.0
2018-Apr-21 22:29N 29°41' W 095°00'0 0.0
2018-Apr-21 21:59N 29°41' W 095°00'0 0.0
2018-Apr-21 21:29N 29°41' W 095°00'0 0.0
2018-Apr-21 20:59N 29°41' W 095°00'0 0.0
2018-Apr-21 20:29N 29°41' W 095°00'0 0.0
2018-Apr-21 19:59N 29°41' W 095°00'0 0.0
2018-Apr-21 19:29N 29°41' W 095°00'0 0.0
2018-Apr-21 18:59N 29°41' W 095°00'0 0.0
2018-Apr-21 18:29N 29°41' W 095°00'0 0.0
2018-Apr-21 17:59N 29°41' W 095°00'0 0.0
2018-Apr-21 17:29N 29°41' W 095°00'0 0.0
2018-Apr-21 16:59N 29°41' W 095°00'0 0.0
2018-Apr-21 16:29N 29°41' W 095°00'0 0.0
2018-Apr-21 15:56N 29°41' W 095°00'0 0.0
2018-Apr-21 15:29N 29°41' W 095°00'0 0.0
2018-Apr-21 14:59N 29°41' W 095°00'0 0.0
2018-Apr-21 14:29N 29°41' W 095°00'0 0.0
2018-Apr-21 13:59N 29°41' W 095°00'0 0.0
2018-Apr-21 13:29N 29°41' W 095°00'0 0.0
2018-Apr-21 12:59N 29°41' W 095°00'0 0.0
2018-Apr-21 12:29N 29°41' W 095°00'0 0.0
2018-Apr-21 11:57N 29°41' W 095°00'0 0.1
2018-Apr-21 11:30N 29°41' W 095°00'2 4.0
2018-Apr-21 11:00N 29°40' W 094°58'5 9.3
2018-Apr-21 10:30N 29°35' W 094°56'510.2
2018-Apr-21 10:00N 29°31' W 094°53'510.7
2018-Apr-21 09:30N 29°26' W 094°50'510.5
2018-Apr-21 09:00N 29°22' W 094°48'22 7.6
2018-Apr-21 06:09N 29°12' W 094°25'  
2018-Apr-16 06:57N 27°37' W 082°40'614.7
2018-Apr-16 06:30N 27°41' W 082°34'713.8
2018-Apr-16 06:00N 27°47' W 082°31'612.7
2018-Apr-16 05:30N 27°52' W 082°26'2 4.1
2018-Apr-16 04:58N 27°55' W 082°26'0 0.0
2018-Apr-16 04:28N 27°55' W 082°26'0 0.0
2018-Apr-16 03:58N 27°55' W 082°26'0 0.0
2018-Apr-16 03:28N 27°55' W 082°26'0 0.0
2018-Apr-16 02:58N 27°55' W 082°26'0 0.0
2018-Apr-16 02:28N 27°55' W 082°26'0 0.0
2018-Apr-16 01:58N 27°55' W 082°26'0 0.0
2018-Apr-16 01:28N 27°55' W 082°26'0 0.0
2018-Apr-16 00:58N 27°55' W 082°26'0 0.0
2018-Apr-16 00:28N 27°55' W 082°26'0 0.0
2018-Apr-15 23:58N 27°55' W 082°26'0 0.0
2018-Apr-15 23:28N 27°55' W 082°26'0 0.0
2018-Apr-15 22:58N 27°55' W 082°26'0 0.0
2018-Apr-15 22:28N 27°55' W 082°26'0 0.0
2018-Apr-15 21:58N 27°55' W 082°26'0 0.0
2018-Apr-15 21:28N 27°55' W 082°26'0 0.0
2018-Apr-15 20:58N 27°55' W 082°26'0 0.0
2018-Apr-15 20:28N 27°55' W 082°26'0 0.0
2018-Apr-15 19:58N 27°55' W 082°26'0 0.0
2018-Apr-15 19:28N 27°55' W 082°26'0 0.0
2018-Apr-15 18:58N 27°55' W 082°26'0 0.0
2018-Apr-15 18:28N 27°55' W 082°26'0 0.0
2018-Apr-15 17:58N 27°55' W 082°26'0 0.0
2018-Apr-15 17:28N 27°55' W 082°26'0 0.0
2018-Apr-15 16:58N 27°55' W 082°26'0 0.0
2018-Apr-15 16:28N 27°55' W 082°26'0 0.0
2018-Apr-15 15:58N 27°55' W 082°26'0 0.0
2018-Apr-15 15:28N 27°55' W 082°26'0 0.0
2018-Apr-15 14:58N 27°55' W 082°26'0 0.0
2018-Apr-15 14:28N 27°55' W 082°26'0 0.0
2018-Apr-15 13:58N 27°55' W 082°26'0 0.0
2018-Apr-15 13:28N 27°55' W 082°26'0 0.0
2018-Apr-15 12:58N 27°55' W 082°26'0 0.0
2018-Apr-15 12:28N 27°55' W 082°26'0 0.0
2018-Apr-15 11:58N 27°55' W 082°26'0 0.0
2018-Apr-15 11:28N 27°55' W 082°26'0 0.0
2018-Apr-15 11:00N 27°55' W 082°26'1 2.6
2018-Apr-15 10:30N 27°53' W 082°26'5 9.6
2018-Apr-15 10:01N 27°49' W 082°27'5 9.4
2018-Apr-15 09:30N 27°46' W 082°31'510.9
2018-Apr-15 09:00N 27°41' W 082°34'2012.3
2018-Apr-15 07:25N 27°36' W 082°56'12 6.0
2018-Apr-15 05:24N 27°31' W 083°08'4 8.6
2018-Apr-15 04:57N 27°27' W 083°09'4 8.6
2018-Apr-15 04:30N 27°23' W 083°11'4 8.6
2018-Apr-15 04:00N 27°19' W 083°12'4 8.6
2018-Apr-15 03:30N 27°15' W 083°14'5 8.6
2018-Apr-15 02:58N 27°11' W 083°15'510.4
2018-Apr-15 02:30N 27°06' W 083°17'812.4
2018-Apr-15 01:52N 26°59' W 083°20'  

Dump ship's entire track history